createdAt,value
2017-10-16T00:01:46.607Z,13.77
2017-10-16T00:04:12.404Z,13.79
2017-10-16T00:07:01.976Z,13.82
2017-10-16T00:09:59.019Z,13.70
2017-10-16T00:12:56.279Z,13.69
2017-10-16T00:25:43.383Z,13.46
2017-10-16T00:28:32.625Z,13.41
2017-10-16T00:31:30.495Z,13.39
2017-10-16T00:34:27.631Z,13.32
2017-10-16T00:47:26.411Z,13.09
2017-10-16T00:50:15.343Z,13.02
2017-10-16T00:53:12.999Z,12.99
2017-10-16T00:56:10.536Z,12.99
2017-10-16T00:59:08.109Z,12.97
2017-10-16T01:08:59.584Z,12.94
2017-10-16T01:11:48.962Z,12.91
2017-10-16T01:14:46.675Z,12.86
2017-10-16T01:17:44.857Z,12.77
2017-10-16T01:20:42.895Z,12.77
2017-10-16T01:23:39.907Z,12.72
2017-10-16T01:26:37.208Z,12.65
2017-10-16T01:32:24.343Z,12.74
2017-10-16T01:35:13.367Z,12.74
2017-10-16T01:38:10.431Z,12.72
2017-10-16T01:41:08.244Z,12.73
2017-10-16T01:44:05.396Z,12.74
2017-10-16T01:53:55.328Z,12.68
2017-10-16T01:56:44.705Z,12.64
2017-10-16T01:59:42.361Z,12.63
2017-10-16T02:02:40.217Z,12.63
2017-10-16T02:05:37.444Z,12.51
2017-10-16T02:15:28.123Z,12.35
2017-10-16T02:18:18.111Z,12.38
2017-10-16T02:21:15.157Z,12.35
2017-10-16T02:24:12.402Z,12.26
2017-10-16T02:27:10.432Z,12.26
2017-10-16T02:30:08.267Z,12.20
2017-10-16T02:33:06.262Z,12.19
2017-10-16T02:36:03.380Z,12.20
2017-10-16T02:38:29.147Z,12.23
2017-10-16T02:41:19.104Z,12.24
2017-10-16T02:44:16.424Z,12.17
2017-10-16T03:00:08.042Z,11.99
2017-10-16T03:19:45.791Z,11.88
2017-10-16T03:22:12.438Z,11.92
2017-10-16T03:41:48.648Z,11.75
2017-10-16T03:44:14.444Z,11.78
2017-10-16T04:03:50.395Z,11.90
2017-10-16T04:06:16.167Z,12.02
2017-10-16T04:09:05.335Z,12.05
2017-10-16T04:12:02.960Z,12.02
2017-10-16T04:15:00.665Z,12.18
2017-10-16T04:17:58.442Z,12.66
2017-10-16T04:20:56.184Z,12.82
2017-10-16T04:40:07.961Z,12.22
2017-10-16T04:52:38.499Z,12.19
2017-10-16T05:15:04.155Z,11.66
2017-10-16T05:17:53.406Z,11.66
2017-10-16T05:20:50.607Z,11.81
2017-10-16T05:23:48.199Z,11.72
2017-10-16T05:36:45.832Z,11.59
2017-10-16T05:39:35.096Z,11.61
2017-10-16T05:58:49.179Z,11.38
2017-10-16T06:01:38.578Z,11.32
2017-10-16T06:04:36.511Z,11.23
2017-10-16T06:07:33.472Z,11.30
2017-10-16T06:10:30.382Z,11.39
2017-10-16T06:13:27.420Z,11.47
2017-10-16T06:16:24.499Z,11.62
2017-10-16T06:19:22.628Z,11.71
2017-10-16T06:21:48.399Z,11.80
2017-10-16T06:24:38.015Z,12.00
2017-10-16T06:27:35.515Z,12.20
2017-10-16T06:30:33.446Z,12.31
2017-10-16T06:33:31.627Z,12.38
2017-10-16T06:52:44.159Z,14.33
2017-10-16T06:55:41.512Z,15.03
2017-10-16T06:58:39.261Z,15.78
2017-10-16T07:01:36.587Z,16.98
2017-10-16T07:04:33.651Z,17.94
2017-10-16T07:07:31.480Z,18.79
2017-10-16T07:09:57.249Z,19.17
2017-10-16T07:12:46.360Z,19.33
2017-10-16T07:21:07.774Z,20.21
2017-10-16T07:23:33.532Z,20.58
2017-10-16T07:25:59.288Z,20.62
2017-10-16T07:28:25.066Z,21.23
2017-10-16T07:30:50.824Z,21.69
2017-10-16T07:33:16.603Z,21.54
2017-10-16T07:35:42.402Z,20.96
2017-10-16T07:38:08.167Z,21.13
2017-10-16T07:40:33.956Z,21.39
2017-10-16T07:42:59.766Z,21.86
2017-10-16T07:45:25.540Z,23.17
2017-10-16T07:47:51.283Z,24.08
2017-10-16T07:50:17.060Z,24.61
2017-10-16T07:52:42.867Z,24.75
2017-10-16T07:55:08.620Z,25.28
2017-10-16T07:57:34.396Z,25.59
2017-10-16T08:00:00.132Z,25.54
2017-10-16T08:02:25.895Z,26.15
2017-10-16T08:04:51.636Z,26.45
2017-10-16T08:07:17.416Z,26.33
2017-10-16T08:09:43.158Z,25.89
2017-10-16T08:12:08.921Z,25.76
2017-10-16T08:14:34.696Z,25.49
2017-10-16T08:17:00.455Z,25.42
2017-10-16T08:19:26.239Z,26.05
2017-10-16T08:21:51.992Z,27.14
2017-10-16T08:24:17.775Z,27.59
2017-10-16T08:26:43.539Z,28.35
2017-10-16T08:29:09.316Z,28.91
2017-10-16T08:31:35.102Z,29.21
2017-10-16T08:34:00.864Z,29.36
2017-10-16T08:36:26.646Z,28.25
2017-10-16T08:38:52.418Z,28.44
2017-10-16T08:41:18.197Z,28.83
2017-10-16T08:43:43.983Z,28.15
2017-10-16T08:46:09.741Z,28.87
2017-10-16T08:48:35.556Z,29.75
2017-10-16T08:51:01.312Z,30.73
2017-10-16T08:53:27.076Z,30.51
2017-10-16T08:55:52.872Z,29.74
2017-10-16T08:58:18.630Z,29.95
2017-10-16T09:00:44.491Z,30.40
2017-10-16T09:03:10.272Z,30.79
2017-10-16T09:05:36.041Z,31.09
2017-10-16T09:08:01.836Z,32.06
2017-10-16T09:10:27.611Z,31.64
2017-10-16T09:12:53.418Z,31.65
2017-10-16T09:15:19.187Z,31.86
2017-10-16T09:17:44.967Z,32.23
2017-10-16T09:20:10.802Z,32.54
2017-10-16T09:22:36.613Z,32.87
2017-10-16T09:25:02.362Z,33.19
2017-10-16T09:27:28.175Z,32.59
2017-10-16T09:29:53.939Z,32.13
2017-10-16T09:32:19.699Z,32.28
2017-10-16T09:34:45.474Z,32.67
2017-10-16T09:37:11.259Z,33.08
2017-10-16T09:39:37.076Z,33.26
2017-10-16T09:42:02.840Z,32.85
2017-10-16T09:44:28.627Z,32.63
2017-10-16T09:46:54.388Z,32.70
2017-10-16T09:49:20.182Z,32.85
2017-10-16T09:51:45.950Z,33.29
2017-10-16T09:54:11.718Z,33.57
2017-10-16T09:56:37.461Z,33.81
2017-10-16T09:59:03.324Z,33.76
2017-10-16T10:01:29.107Z,33.59
2017-10-16T10:03:54.892Z,32.88
2017-10-16T10:06:20.668Z,32.73
2017-10-16T10:08:46.446Z,32.77
2017-10-16T10:11:12.248Z,33.15
2017-10-16T10:13:38.028Z,33.17
2017-10-16T10:16:03.807Z,33.10
2017-10-16T10:18:29.584Z,33.27
2017-10-16T10:20:55.355Z,33.63
2017-10-16T10:23:21.134Z,33.44
2017-10-16T10:25:46.911Z,33.22
2017-10-16T10:28:12.695Z,32.66
2017-10-16T10:30:38.436Z,32.54
2017-10-16T10:33:04.183Z,33.15
2017-10-16T10:35:29.951Z,33.64
2017-10-16T10:37:55.697Z,32.81
2017-10-16T10:40:21.473Z,32.17
2017-10-16T10:42:47.226Z,32.83
2017-10-16T10:45:13.011Z,33.13
2017-10-16T10:47:38.782Z,32.78
2017-10-16T10:50:04.543Z,32.62
2017-10-16T10:52:30.315Z,32.91
2017-10-16T10:54:56.079Z,32.97
2017-10-16T10:57:21.847Z,32.96
2017-10-16T10:59:47.623Z,32.42
2017-10-16T11:02:13.382Z,33.03
2017-10-16T11:04:39.183Z,33.30
2017-10-16T11:07:04.952Z,33.76
2017-10-16T11:09:30.751Z,33.27
2017-10-16T11:11:56.525Z,32.87
2017-10-16T11:14:22.299Z,32.72
2017-10-16T11:16:48.096Z,32.79
2017-10-16T11:19:13.851Z,33.07
2017-10-16T11:21:39.639Z,33.32
2017-10-16T11:24:05.431Z,33.66
2017-10-16T11:26:31.234Z,33.48
2017-10-16T11:28:57.040Z,33.22
2017-10-16T11:31:22.810Z,33.20
2017-10-16T11:33:48.607Z,33.45
2017-10-16T11:36:14.359Z,34.00
2017-10-16T11:38:40.111Z,34.65
2017-10-16T11:41:05.919Z,34.85
2017-10-16T11:43:31.702Z,34.76
2017-10-16T11:45:57.485Z,33.86
2017-10-16T11:48:23.315Z,32.99
2017-10-16T11:50:49.083Z,32.58
2017-10-16T11:53:14.884Z,33.13
2017-10-16T11:55:40.678Z,33.01
2017-10-16T11:58:06.478Z,33.35
2017-10-16T12:00:32.252Z,33.62
2017-10-16T12:02:58.083Z,33.43
2017-10-16T12:05:23.904Z,33.06
2017-10-16T12:07:49.738Z,33.25
2017-10-16T12:10:15.582Z,33.71
2017-10-16T12:12:41.342Z,33.76
2017-10-16T12:15:07.253Z,33.75
2017-10-16T12:17:33.067Z,33.83
2017-10-16T12:19:58.853Z,33.68
2017-10-16T12:22:24.698Z,33.12
2017-10-16T12:24:50.484Z,33.81
2017-10-16T12:27:16.255Z,33.72
2017-10-16T12:29:42.043Z,33.47
2017-10-16T12:32:07.840Z,32.52
2017-10-16T12:34:33.639Z,31.63
2017-10-16T12:36:59.396Z,31.42
2017-10-16T12:39:25.200Z,31.91
2017-10-16T12:41:51.004Z,32.92
2017-10-16T12:44:16.807Z,33.34
2017-10-16T12:46:42.595Z,33.71
2017-10-16T12:49:08.374Z,33.86
2017-10-16T12:51:34.175Z,33.99
2017-10-16T12:53:59.963Z,34.17
2017-10-16T12:56:25.738Z,34.24
2017-10-16T12:58:51.523Z,34.22
2017-10-16T13:01:17.366Z,34.24
2017-10-16T13:03:43.148Z,34.02
2017-10-16T13:06:08.947Z,34.01
2017-10-16T13:08:34.720Z,34.26
2017-10-16T13:11:00.500Z,34.29
2017-10-16T13:13:26.282Z,33.96
2017-10-16T13:15:52.080Z,34.01
2017-10-16T13:18:17.879Z,33.94
2017-10-16T13:20:43.680Z,34.01
2017-10-16T13:23:09.443Z,33.80
2017-10-16T13:25:35.243Z,33.85
2017-10-16T13:28:01.038Z,33.97
2017-10-16T13:30:26.787Z,33.83
2017-10-16T13:32:52.591Z,33.88
2017-10-16T13:35:18.449Z,33.74
2017-10-16T13:37:44.267Z,33.62
2017-10-16T13:40:10.036Z,33.69
2017-10-16T13:42:35.867Z,33.51
2017-10-16T13:45:01.648Z,33.53
2017-10-16T13:47:27.465Z,33.50
2017-10-16T13:49:53.299Z,33.62
2017-10-16T13:52:19.092Z,33.56
2017-10-16T13:54:44.915Z,33.47
2017-10-16T13:57:10.729Z,33.48
2017-10-16T13:59:36.571Z,33.41
2017-10-16T14:02:02.402Z,33.33
2017-10-16T14:04:28.210Z,33.42
2017-10-16T14:06:54.036Z,33.48
2017-10-16T14:09:19.811Z,33.48
2017-10-16T14:11:45.617Z,33.36
2017-10-16T14:14:11.419Z,33.39
2017-10-16T14:16:37.204Z,33.38
2017-10-16T14:19:02.987Z,33.34
2017-10-16T14:21:28.827Z,33.33
2017-10-16T14:23:54.635Z,33.29
2017-10-16T14:26:20.472Z,33.27
2017-10-16T14:28:46.280Z,33.25
2017-10-16T14:31:12.071Z,33.12
2017-10-16T14:33:37.884Z,33.09
2017-10-16T14:36:03.684Z,32.91
2017-10-16T14:38:29.443Z,32.91
2017-10-16T14:40:55.258Z,32.92
2017-10-16T14:43:21.030Z,32.76
2017-10-16T14:45:46.872Z,32.61
2017-10-16T14:48:12.711Z,32.57
2017-10-16T14:50:38.511Z,32.59
2017-10-16T14:53:04.319Z,32.52
2017-10-16T14:55:30.105Z,32.39
2017-10-16T14:57:55.882Z,32.36
2017-10-16T15:00:21.712Z,32.28
2017-10-16T15:02:47.537Z,32.07
2017-10-16T15:05:13.362Z,32.05
2017-10-16T15:07:39.181Z,32.08
2017-10-16T15:10:04.971Z,32.09
2017-10-16T15:12:30.754Z,31.98
2017-10-16T15:14:56.547Z,31.89
2017-10-16T15:17:22.398Z,31.82
2017-10-16T15:19:48.139Z,31.67
2017-10-16T15:22:15.310Z,31.70
2017-10-16T15:24:41.135Z,31.66
2017-10-16T15:27:06.954Z,31.66
2017-10-16T15:29:32.708Z,31.66
2017-10-16T15:31:58.542Z,31.53
2017-10-16T15:34:24.343Z,31.45
2017-10-16T15:36:50.111Z,31.17
2017-10-16T15:39:15.924Z,31.23
2017-10-16T15:41:41.758Z,31.00
2017-10-16T15:44:07.551Z,30.92
2017-10-16T15:46:33.358Z,30.71
2017-10-16T15:48:59.147Z,30.61
2017-10-16T15:51:24.967Z,30.35
2017-10-16T15:53:50.848Z,30.13
2017-10-16T15:56:16.610Z,29.85
2017-10-16T15:58:42.375Z,29.60
2017-10-16T16:01:08.175Z,29.31
2017-10-16T16:03:34.018Z,28.99
2017-10-16T16:05:59.807Z,28.66
2017-10-16T16:08:25.562Z,28.39
2017-10-16T16:10:51.370Z,28.08
2017-10-16T16:13:17.147Z,27.81
2017-10-16T16:15:42.928Z,27.47
2017-10-16T16:18:08.704Z,27.15
2017-10-16T16:20:34.482Z,26.79
2017-10-16T16:23:00.259Z,26.43
2017-10-16T16:25:26.043Z,26.16
2017-10-16T16:27:51.810Z,25.86
2017-10-16T16:30:17.639Z,25.46
2017-10-16T16:32:43.393Z,25.16
2017-10-16T16:35:09.174Z,24.93
2017-10-16T16:37:34.951Z,24.69
2017-10-16T16:40:00.797Z,24.48
2017-10-16T16:42:26.635Z,24.26
2017-10-16T16:44:52.398Z,24.06
2017-10-16T16:47:18.176Z,23.81
2017-10-16T16:49:43.954Z,23.61
2017-10-16T16:52:09.755Z,23.44
2017-10-16T16:54:35.536Z,23.27
2017-10-16T16:57:01.351Z,23.04
2017-10-16T16:59:27.155Z,22.92
2017-10-16T17:01:52.969Z,22.75
2017-10-16T17:04:18.760Z,22.58
2017-10-16T17:06:44.524Z,22.46
2017-10-16T17:09:10.298Z,22.32
2017-10-16T17:11:36.103Z,22.16
2017-10-16T17:14:01.904Z,21.99
2017-10-16T17:16:27.659Z,21.66
2017-10-16T17:18:53.406Z,21.42
2017-10-16T17:21:19.187Z,21.28
2017-10-16T17:23:44.954Z,21.22
2017-10-16T17:26:10.751Z,21.19
2017-10-16T17:28:36.563Z,21.12
2017-10-16T17:31:02.323Z,21.06
2017-10-16T17:33:28.091Z,21.04
2017-10-16T17:35:53.903Z,21.01
2017-10-16T17:38:19.672Z,20.89
2017-10-16T17:40:45.484Z,20.83
2017-10-16T17:43:11.288Z,20.81
2017-10-16T17:45:37.071Z,20.71
2017-10-16T17:48:02.907Z,20.62
2017-10-16T17:50:28.687Z,20.45
2017-10-16T17:52:54.492Z,20.30
2017-10-16T17:55:20.320Z,20.25
2017-10-16T17:57:46.110Z,20.18
2017-10-16T18:00:11.899Z,20.10
2017-10-16T18:02:37.690Z,19.98
2017-10-16T18:05:03.484Z,19.91
2017-10-16T18:07:29.263Z,19.74
2017-10-16T18:09:55.062Z,19.63
2017-10-16T18:12:20.880Z,19.52
2017-10-16T18:14:46.662Z,19.39
2017-10-16T18:17:12.449Z,19.40
2017-10-16T18:19:38.222Z,19.44
2017-10-16T18:22:03.998Z,19.29
2017-10-16T18:24:29.818Z,19.19
2017-10-16T18:26:55.600Z,19.17
2017-10-16T18:29:21.399Z,19.12
2017-10-16T18:31:47.182Z,19.03
2017-10-16T18:34:12.951Z,18.91
2017-10-16T18:36:38.728Z,18.86
2017-10-16T18:39:04.515Z,18.83
2017-10-16T18:41:30.375Z,18.70
2017-10-16T18:43:56.141Z,18.69
2017-10-16T18:46:22.024Z,18.60
2017-10-16T18:48:47.812Z,18.60
2017-10-16T18:51:13.573Z,18.58
2017-10-16T18:53:39.372Z,18.49
2017-10-16T18:56:05.192Z,18.43
2017-10-16T18:58:31.004Z,18.48
2017-10-16T19:00:56.845Z,18.40
2017-10-16T19:03:22.639Z,18.43
2017-10-16T19:05:48.399Z,18.36
2017-10-16T19:08:14.253Z,18.28
2017-10-16T19:10:40.021Z,18.14
2017-10-16T19:13:05.816Z,18.12
2017-10-16T19:15:31.727Z,18.11
2017-10-16T19:17:57.539Z,18.07
2017-10-16T19:20:23.355Z,18.00
2017-10-16T19:22:49.183Z,17.95
2017-10-16T19:25:15.024Z,17.91
2017-10-16T19:27:40.812Z,17.91
2017-10-16T19:30:06.604Z,17.80
2017-10-16T19:32:32.375Z,17.68
2017-10-16T19:34:58.163Z,17.58
2017-10-16T19:37:24.022Z,17.47
2017-10-16T19:39:49.824Z,17.44
2017-10-16T19:42:15.593Z,17.33
2017-10-16T19:44:41.367Z,17.29
2017-10-16T19:47:07.163Z,17.26
2017-10-16T19:49:32.935Z,17.28
2017-10-16T19:51:58.721Z,17.20
2017-10-16T19:54:24.527Z,17.09
2017-10-16T19:56:50.336Z,17.09
2017-10-16T19:59:16.111Z,17.15
2017-10-16T20:01:41.938Z,17.12
2017-10-16T20:04:07.740Z,17.12
2017-10-16T20:06:33.582Z,17.07
2017-10-16T20:08:59.430Z,16.97
2017-10-16T20:11:25.255Z,16.89
2017-10-16T20:13:51.085Z,16.89
2017-10-16T20:16:16.968Z,16.75
2017-10-16T20:18:43.641Z,16.72
2017-10-16T20:21:09.565Z,16.69
2017-10-16T20:23:35.402Z,16.77
2017-10-16T20:26:01.301Z,16.88
2017-10-16T20:28:27.215Z,17.12
2017-10-16T20:30:53.049Z,17.34
2017-10-16T20:33:18.892Z,17.38
2017-10-16T20:35:44.743Z,17.51
2017-10-16T20:38:10.559Z,17.48
2017-10-16T20:40:36.399Z,17.54
2017-10-16T20:43:02.223Z,17.56
2017-10-16T20:45:28.088Z,17.58
2017-10-16T20:47:53.911Z,17.60
2017-10-16T20:50:19.849Z,17.58
2017-10-16T20:52:45.711Z,17.60
2017-10-16T20:55:11.535Z,17.54
2017-10-16T20:57:37.405Z,17.58
2017-10-16T21:00:03.245Z,17.37
2017-10-16T21:02:29.185Z,17.17
2017-10-16T21:04:54.986Z,17.10
2017-10-16T21:07:20.836Z,16.98
2017-10-16T21:09:46.755Z,16.84
2017-10-16T21:12:12.595Z,16.87
2017-10-16T21:14:38.462Z,17.00
2017-10-16T21:17:04.290Z,17.01
2017-10-16T21:19:30.135Z,17.09
2017-10-16T21:21:55.938Z,17.24
2017-10-16T21:24:21.751Z,17.35
2017-10-16T21:26:47.592Z,17.40
2017-10-16T21:29:13.427Z,17.34
2017-10-16T21:31:39.279Z,17.32
2017-10-16T21:34:05.129Z,17.26
2017-10-16T21:36:31.035Z,17.23
2017-10-16T21:38:56.868Z,17.24
2017-10-16T21:41:22.682Z,17.17
2017-10-16T21:43:48.511Z,17.03
2017-10-16T21:46:14.335Z,16.89
2017-10-16T21:48:40.183Z,16.77
2017-10-16T21:51:06.020Z,16.75
2017-10-16T21:53:31.839Z,16.78
2017-10-16T21:55:57.694Z,16.86
2017-10-16T21:58:23.580Z,16.82
2017-10-16T22:00:49.397Z,16.70
2017-10-16T22:03:15.339Z,16.60
2017-10-16T22:05:41.192Z,16.59
2017-10-16T22:08:07.023Z,16.47
2017-10-16T22:10:32.879Z,16.37
2017-10-16T22:12:58.720Z,16.34
2017-10-16T22:15:24.627Z,16.44
2017-10-16T22:17:50.459Z,16.55
2017-10-16T22:20:16.289Z,16.58
2017-10-16T22:22:42.216Z,16.60
2017-10-16T22:25:08.071Z,16.54
2017-10-16T22:27:33.951Z,16.51
2017-10-16T22:29:59.787Z,16.54
2017-10-16T22:32:25.603Z,16.52
2017-10-16T22:34:51.422Z,16.49
2017-10-16T22:37:17.266Z,16.38
2017-10-16T22:39:43.148Z,16.43
2017-10-16T22:42:09.015Z,16.48
2017-10-16T22:44:34.879Z,16.53
2017-10-16T22:47:00.751Z,16.50
2017-10-16T22:49:26.584Z,16.45
2017-10-16T22:51:52.444Z,16.50
2017-10-16T22:54:30.627Z,16.46
2017-10-16T22:56:56.450Z,16.49
2017-10-16T22:59:22.268Z,16.51
2017-10-16T23:01:48.099Z,16.61
2017-10-16T23:04:13.899Z,16.64
2017-10-16T23:06:39.695Z,16.69
2017-10-16T23:09:05.529Z,16.71
2017-10-16T23:11:31.359Z,16.72
2017-10-16T23:16:22.435Z,16.68
2017-10-16T23:18:48.188Z,16.67
2017-10-16T23:21:13.987Z,16.69
2017-10-16T23:23:39.783Z,16.74
2017-10-16T23:26:05.545Z,16.77
2017-10-16T23:28:31.339Z,16.80
2017-10-16T23:30:57.093Z,16.81
2017-10-16T23:33:22.887Z,16.81
2017-10-16T23:35:48.680Z,16.79
2017-10-16T23:38:14.548Z,16.77
2017-10-16T23:40:40.331Z,16.72
2017-10-16T23:43:06.136Z,16.65
2017-10-16T23:45:31.903Z,16.59
2017-10-16T23:47:57.727Z,16.58
2017-10-16T23:50:23.502Z,16.65
2017-10-16T23:52:49.292Z,16.67
2017-10-16T23:55:15.146Z,16.73
2017-10-16T23:57:41.031Z,16.79
